Time;durP1;ratioP1;P1;durP2;ratioP2;P2;SDS_P1;SDS_P2;PMS_P1;PMS_P2;Temp;Humidity;BMP_temperature;BMP_pressure;BME280_temperature;BME280_humidity;BME280_pressure;Samples;Min_cycle;Max_cycle;Signal;HPM_P1;HPM_P2
2023/10/15 00:01:06;;;;;;;10.70;10.20;;;;;;;;;;5069685;28;20052;-64
2023/10/15 00:03:33;;;;;;;10.80;10.30;;;;;;;;;;5065810;28;20025;-64
2023/10/15 00:05:59;;;;;;;10.73;10.23;;;;;;;;;;5064909;28;20055;-65
2023/10/15 00:08:24;;;;;;;11.00;10.50;;;;;;;;;;5062622;28;20040;-64
2023/10/15 00:10:50;;;;;;;10.63;10.13;;;;;;;;;;5060133;28;20024;-66
2023/10/15 00:13:15;;;;;;;10.95;10.45;;;;;;;;;;5067364;28;20045;-64
2023/10/15 00:15:42;;;;;;;10.95;10.45;;;;;;;;;;5062525;28;20056;-62
2023/10/15 00:18:09;;;;;;;10.60;10.10;;;;;;;;;;5064452;28;20033;-63
2023/10/15 00:20:38;;;;;;;10.90;10.40;;;;;;;;;;5061123;28;20135;-64
2023/10/15 00:23:06;;;;;;;10.80;10.30;;;;;;;;;;5061178;28;20028;-64
2023/10/15 00:25:35;;;;;;;10.60;10.10;;;;;;;;;;5059251;28;20025;-64
2023/10/15 00:28:02;;;;;;;10.57;10.07;;;;;;;;;;5059328;28;20021;-64
2023/10/15 00:30:33;;;;;;;10.85;10.35;;;;;;;;;;5062339;28;20492;-64
2023/10/15 00:33:03;;;;;;;10.88;10.38;;;;;;;;;;5061071;28;20036;-66
2023/10/15 00:35:28;;;;;;;10.95;10.45;;;;;;;;;;5067134;28;20086;-63
2023/10/15 00:37:56;;;;;;;10.80;10.30;;;;;;;;;;5066269;28;20028;-64
2023/10/15 00:40:22;;;;;;;10.70;10.20;;;;;;;;;;5056712;28;20082;-64
2023/10/15 00:42:48;;;;;;;10.85;10.35;;;;;;;;;;5070273;28;20016;-64
2023/10/15 00:45:20;;;;;;;12.20;11.60;;;;;;;;;;5058380;28;20027;-64
2023/10/15 00:47:51;;;;;;;10.70;10.20;;;;;;;;;;5065714;28;20035;-64
2023/10/15 00:50:17;;;;;;;10.88;10.38;;;;;;;;;;5059042;28;20035;-63
2023/10/15 00:52:44;;;;;;;10.88;10.38;;;;;;;;;;5062957;28;20103;-64
2023/10/15 00:55:19;;;;;;;11.73;11.23;;;;;;;;;;5054864;28;20033;-64
2023/10/15 00:57:45;;;;;;;10.90;10.40;;;;;;;;;;5058075;28;20028;-64
2023/10/15 01:02:56;;;;;;;10.80;10.30;;;;;;;;;;5061285;28;20063;-63
2023/10/15 01:05:24;;;;;;;11.20;10.70;;;;;;;;;;5057372;28;20017;-64
2023/10/15 01:07:51;;;;;;;10.73;10.23;;;;;;;;;;5064738;28;20371;-64
2023/10/15 01:10:32;;;;;;;11.13;10.63;;;;;;;;;;5061443;28;20043;-64
2023/10/15 01:13:04;;;;;;;10.43;9.93;;;;;;;;;;5065819;28;20049;-63
2023/10/15 01:15:34;;;;;;;11.20;10.70;;;;;;;;;;5066291;28;20507;-65
2023/10/15 01:18:06;;;;;;;10.80;10.30;;;;;;;;;;5062869;28;20607;-64
2023/10/15 01:20:35;;;;;;;10.27;9.88;;;;;;;;;;5064140;28;20074;-64
2023/10/15 01:23:01;;;;;;;10.45;9.95;;;;;;;;;;5061683;28;20103;-64
2023/10/15 01:25:26;;;;;;;10.52;10.02;;;;;;;;;;5057660;28;20107;-63
2023/10/15 01:27:58;;;;;;;10.88;10.38;;;;;;;;;;5064009;28;20028;-64
2023/10/15 01:30:24;;;;;;;10.80;10.30;;;;;;;;;;5065947;28;20040;-64
2023/10/15 01:32:50;;;;;;;10.50;10.00;;;;;;;;;;5063038;28;20037;-64
2023/10/15 01:35:15;;;;;;;10.88;10.38;;;;;;;;;;5073635;28;20045;-64
2023/10/15 01:37:45;;;;;;;10.48;9.98;;;;;;;;;;5071439;28;20036;-64
2023/10/15 01:42:43;;;;;;;10.57;10.07;;;;;;;;;;5068836;28;20440;-64
2023/10/15 01:47:37;;;;;;;11.18;10.68;;;;;;;;;;5065949;28;20070;-64
2023/10/15 01:50:08;;;;;;;10.73;10.23;;;;;;;;;;5071391;28;20489;-64
2023/10/15 01:52:39;;;;;;;10.70;10.20;;;;;;;;;;5063649;28;20025;-63
2023/10/15 01:55:05;;;;;;;10.88;10.38;;;;;;;;;;5067238;28;20025;-63
2023/10/15 01:57:30;;;;;;;10.82;10.32;;;;;;;;;;5063079;28;20025;-63
2023/10/15 02:00:05;;;;;;;10.63;10.13;;;;;;;;;;5066074;28;20013;-63
2023/10/15 02:02:31;;;;;;;10.73;10.23;;;;;;;;;;5067787;28;20738;-64
2023/10/15 02:04:57;;;;;;;10.60;10.10;;;;;;;;;;5067318;28;20039;-63
2023/10/15 02:07:22;;;;;;;10.40;9.90;;;;;;;;;;5068005;28;20107;-64
2023/10/15 02:09:48;;;;;;;10.18;9.77;;;;;;;;;;5064412;28;20108;-62
2023/10/15 02:12:14;;;;;;;10.52;10.02;;;;;;;;;;5068869;28;20076;-64
2023/10/15 02:14:44;;;;;;;10.85;10.35;;;;;;;;;;5064413;28;20024;-63
2023/10/15 02:17:13;;;;;;;10.52;10.02;;;;;;;;;;5068056;28;20031;-64
2023/10/15 02:19:42;;;;;;;10.52;10.02;;;;;;;;;;5064861;28;20021;-63
2023/10/15 02:22:12;;;;;;;10.52;10.02;;;;;;;;;;5071983;28;20028;-63
2023/10/15 02:24:38;;;;;;;10.80;10.30;;;;;;;;;;5067692;28;20099;-63
2023/10/15 02:27:06;;;;;;;10.73;10.23;;;;;;;;;;5064978;28;20017;-63
2023/10/15 02:29:35;;;;;;;11.00;10.50;;;;;;;;;;5066500;28;20401;-64
2023/10/15 02:32:33;;;;;;;10.65;10.15;;;;;;;;;;5064586;28;20029;-65
2023/10/15 02:34:52;;;;;;;10.70;10.20;;;;;;;;;;5066575;28;20119;-64
2023/10/15 02:37:18;;;;;;;10.82;10.32;;;;;;;;;;5063983;28;20151;-62
2023/10/15 02:39:49;;;;;;;10.60;10.10;;;;;;;;;;5064368;28;20110;-63
2023/10/15 02:42:15;;;;;;;10.80;10.30;;;;;;;;;;5067549;28;20477;-64
2023/10/15 02:44:41;;;;;;;10.55;10.05;;;;;;;;;;5064442;28;20024;-63
2023/10/15 02:47:07;;;;;;;10.90;10.40;;;;;;;;;;5064973;28;20028;-63
2023/10/15 02:49:50;;;;;;;10.80;10.30;;;;;;;;;;5067981;28;20031;-63
2023/10/15 02:52:19;;;;;;;10.88;10.38;;;;;;;;;;5062160;28;20420;-64
2023/10/15 02:54:45;;;;;;;10.70;10.20;;;;;;;;;;5066225;28;20021;-64
2023/10/15 02:57:15;;;;;;;10.95;10.45;;;;;;;;;;5067077;28;20016;-63
2023/10/15 02:59:52;;;;;;;10.70;10.20;;;;;;;;;;5063867;28;20029;-63
2023/10/15 03:02:19;;;;;;;10.02;9.63;;;;;;;;;;5061575;28;20394;-63
2023/10/15 03:04:49;;;;;;;10.75;10.25;;;;;;;;;;5063226;28;20497;-63
2023/10/15 03:07:19;;;;;;;10.57;10.07;;;;;;;;;;5058096;28;20068;-63
2023/10/15 03:09:51;;;;;;;10.60;10.10;;;;;;;;;;5068608;28;20020;-63
2023/10/15 03:12:18;;;;;;;10.70;10.20;;;;;;;;;;5063938;28;20411;-63
2023/10/15 03:14:43;;;;;;;10.20;9.80;;;;;;;;;;5069776;28;20035;-64
2023/10/15 03:17:13;;;;;;;10.05;9.65;;;;;;;;;;5067130;28;20024;-62
2023/10/15 03:19:39;;;;;;;10.88;10.38;;;;;;;;;;5071680;28;20388;-63
2023/10/15 03:22:08;;;;;;;11.25;10.75;;;;;;;;;;5062655;28;20035;-63
2023/10/15 03:24:34;;;;;;;10.60;10.10;;;;;;;;;;5069315;28;20476;-64
2023/10/15 03:27:00;;;;;;;10.02;9.63;;;;;;;;;;5062190;28;20061;-64
2023/10/15 03:29:26;;;;;;;10.30;9.82;;;;;;;;;;5071499;28;20150;-64
2023/10/15 03:32:04;;;;;;;10.70;10.20;;;;;;;;;;5063644;28;20051;-64
2023/10/15 03:34:35;;;;;;;10.80;10.30;;;;;;;;;;5062379;28;20696;-64
2023/10/15 03:37:01;;;;;;;10.27;9.82;;;;;;;;;;5064899;28;20020;-63
2023/10/15 03:42:09;;;;;;;10.60;10.10;;;;;;;;;;5070152;28;20031;-63
2023/10/15 03:44:44;;;;;;;10.93;10.43;;;;;;;;;;5066914;28;20428;-65
2023/10/15 03:47:09;;;;;;;10.40;9.90;;;;;;;;;;5066746;28;20017;-63
2023/10/15 03:49:36;;;;;;;10.18;9.77;;;;;;;;;;5063745;28;20035;-63
2023/10/15 03:52:07;;;;;;;10.93;10.43;;;;;;;;;;5064462;28;20025;-63
2023/10/15 03:54:33;;;;;;;10.50;10.00;;;;;;;;;;5063997;28;20009;-63
2023/10/15 03:57:00;;;;;;;10.20;9.80;;;;;;;;;;5063682;28;20028;-62
2023/10/15 03:59:26;;;;;;;10.50;10.00;;;;;;;;;;5066634;28;20046;-63
2023/10/15 04:01:52;;;;;;;10.90;10.40;;;;;;;;;;5054935;28;20020;-64
2023/10/15 04:04:18;;;;;;;10.10;9.70;;;;;;;;;;5056823;28;20087;-63
2023/10/15 04:06:53;;;;;;;10.90;10.40;;;;;;;;;;5064162;28;20040;-64
2023/10/15 04:09:23;;;;;;;10.52;10.02;;;;;;;;;;5062907;28;20059;-63
2023/10/15 04:11:48;;;;;;;10.75;10.25;;;;;;;;;;5064540;28;20044;-64
2023/10/15 04:14:18;;;;;;;10.80;10.30;;;;;;;;;;5062666;28;20056;-63
2023/10/15 04:16:44;;;;;;;10.80;10.30;;;;;;;;;;5063973;28;20027;-64
2023/10/15 04:19:09;;;;;;;10.85;10.35;;;;;;;;;;5059969;28;20028;-63
2023/10/15 04:21:39;;;;;;;10.80;10.30;;;;;;;;;;5067132;28;20024;-64
2023/10/15 04:24:05;;;;;;;10.70;10.20;;;;;;;;;;5061657;28;20021;-64
2023/10/15 04:26:30;;;;;;;10.80;10.30;;;;;;;;;;5066875;28;20405;-64
2023/10/15 04:28:56;;;;;;;10.63;10.13;;;;;;;;;;5071483;28;20013;-64
2023/10/15 04:31:22;;;;;;;10.50;10.00;;;;;;;;;;5058799;28;20121;-63
2023/10/15 04:33:52;;;;;;;10.60;10.10;;;;;;;;;;5066920;28;20027;-63
2023/10/15 04:36:18;;;;;;;10.65;10.15;;;;;;;;;;5064524;28;20032;-64
2023/10/15 04:38:43;;;;;;;10.40;9.90;;;;;;;;;;5065062;28;20037;-64
2023/10/15 04:41:10;;;;;;;10.98;10.48;;;;;;;;;;5061277;28;20436;-64
2023/10/15 04:43:45;;;;;;;10.40;9.90;;;;;;;;;;5064048;28;20495;-64
2023/10/15 04:46:17;;;;;;;;;;;;;;;;;;5058279;28;20028;-64
2023/10/15 04:48:44;;;;;;;10.20;9.75;;;;;;;;;;5065037;28;20387;-64
2023/10/15 04:51:13;;;;;;;10.32;9.82;;;;;;;;;;5059365;28;20033;-64
2023/10/15 04:53:50;;;;;;;10.65;10.15;;;;;;;;;;5063161;28;20509;-63
2023/10/15 04:56:16;;;;;;;10.48;9.98;;;;;;;;;;5060410;28;20039;-63
2023/10/15 04:58:41;;;;;;;10.45;9.95;;;;;;;;;;5063286;28;20020;-65
2023/10/15 05:01:07;;;;;;;10.15;9.75;;;;;;;;;;5055832;28;20032;-64
2023/10/15 05:03:34;;;;;;;10.95;10.45;;;;;;;;;;5091752;27;20489;-64
2023/10/15 05:06:03;;;;;;;11.35;10.85;;;;;;;;;;5062971;28;20066;-65
2023/10/15 05:08:29;;;;;;;11.27;10.77;;;;;;;;;;5060049;28;20036;-65
2023/10/15 05:10:54;;;;;;;10.88;10.38;;;;;;;;;;5063063;28;20012;-64
2023/10/15 05:13:20;;;;;;;10.98;10.48;;;;;;;;;;5060235;28;20509;-65
2023/10/15 05:15:49;;;;;;;11.10;10.60;;;;;;;;;;5068893;28;20104;-64
2023/10/15 05:18:18;;;;;;;11.20;10.70;;;;;;;;;;5068243;28;20103;-64
2023/10/15 05:20:44;;;;;;;11.02;10.52;;;;;;;;;;5069528;28;20066;-64
2023/10/15 05:23:10;;;;;;;11.40;10.90;;;;;;;;;;5071369;28;20040;-64
2023/10/15 05:25:39;;;;;;;11.00;10.50;;;;;;;;;;5068810;28;20017;-64
2023/10/15 05:28:04;;;;;;;11.48;10.98;;;;;;;;;;5067791;28;20475;-64
2023/10/15 05:30:30;;;;;;;11.45;10.95;;;;;;;;;;5064592;28;20119;-64
2023/10/15 05:32:55;;;;;;;11.57;11.07;;;;;;;;;;5065388;28;20481;-64
2023/10/15 05:35:20;;;;;;;11.05;10.55;;;;;;;;;;5066777;28;20031;-63
2023/10/15 05:37:46;;;;;;;11.40;10.90;;;;;;;;;;5068966;28;20032;-63
2023/10/15 05:40:17;;;;;;;11.55;11.05;;;;;;;;;;5068761;28;20108;-63
2023/10/15 05:42:43;;;;;;;11.15;10.65;;;;;;;;;;5070403;28;20062;-64
2023/10/15 05:45:08;;;;;;;11.48;10.98;;;;;;;;;;5063823;28;20021;-63
2023/10/15 05:47:34;;;;;;;11.68;11.18;;;;;;;;;;5071336;28;20021;-65
2023/10/15 05:50:00;;;;;;;11.68;11.18;;;;;;;;;;5060467;28;20031;-64
2023/10/15 05:52:25;;;;;;;11.68;11.18;;;;;;;;;;5069058;28;20017;-63
2023/10/15 05:54:53;;;;;;;11.70;11.20;;;;;;;;;;5068217;28;20032;-64
2023/10/15 05:57:19;;;;;;;11.88;11.38;;;;;;;;;;5062989;28;20070;-63
2023/10/15 05:59:44;;;;;;;11.60;11.10;;;;;;;;;;5062015;28;20434;-64
2023/10/15 06:02:10;;;;;;;11.68;11.18;;;;;;;;;;5062253;28;20020;-65
2023/10/15 06:04:36;;;;;;;11.70;11.20;;;;;;;;;;5073093;28;20024;-63
2023/10/15 06:07:05;;;;;;;11.75;11.25;;;;;;;;;;5061566;28;20527;-64
2023/10/15 06:09:31;;;;;;;11.90;11.40;;;;;;;;;;5062867;28;20013;-64
2023/10/15 06:11:56;;;;;;;12.00;11.50;;;;;;;;;;5067227;28;20016;-64
2023/10/15 06:14:23;;;;;;;11.63;11.13;;;;;;;;;;5061842;28;20024;-64
2023/10/15 06:16:52;;;;;;;11.65;11.15;;;;;;;;;;5074340;28;20016;-65
2023/10/15 06:19:18;;;;;;;11.88;11.38;;;;;;;;;;5068736;28;20638;-64
2023/10/15 06:21:43;;;;;;;12.15;11.65;;;;;;;;;;5061481;28;20056;-64
2023/10/15 06:24:10;;;;;;;11.85;11.35;;;;;;;;;;5061304;28;20020;-65
2023/10/15 06:26:36;;;;;;;11.80;11.30;;;;;;;;;;5064756;28;20023;-65
2023/10/15 06:29:01;;;;;;;12.00;11.50;;;;;;;;;;5070275;28;20016;-64
2023/10/15 06:31:28;;;;;;;11.90;11.40;;;;;;;;;;5061803;28;20119;-65
2023/10/15 06:33:55;;;;;;;12.00;11.50;;;;;;;;;;5056579;28;20068;-63
2023/10/15 06:36:20;;;;;;;11.93;11.43;;;;;;;;;;5065561;28;20024;-64
2023/10/15 06:38:46;;;;;;;12.10;11.60;;;;;;;;;;5057681;28;20051;-63
2023/10/15 06:41:11;;;;;;;12.13;11.63;;;;;;;;;;5062285;28;20048;-64
2023/10/15 06:43:36;;;;;;;12.00;11.50;;;;;;;;;;5064994;28;20701;-63
2023/10/15 06:46:08;;;;;;;12.10;11.60;;;;;;;;;;5062691;28;20024;-65
2023/10/15 06:48:37;;;;;;;11.90;11.40;;;;;;;;;;5065898;28;20149;-66
2023/10/15 06:51:04;;;;;;;12.15;11.65;;;;;;;;;;5063171;28;20533;-65
2023/10/15 06:53:34;;;;;;;11.90;11.40;;;;;;;;;;5057463;28;20055;-64
2023/10/15 06:56:00;;;;;;;12.00;11.50;;;;;;;;;;5065692;28;20028;-65
2023/10/15 06:58:26;;;;;;;11.82;11.32;;;;;;;;;;5062488;28;20507;-65
2023/10/15 07:00:58;;;;;;;11.77;11.27;;;;;;;;;;5064506;28;20071;-65
2023/10/15 07:03:24;;;;;;;11.85;11.35;;;;;;;;;;5066749;28;20029;-66
2023/10/15 07:05:50;;;;;;;11.93;11.43;;;;;;;;;;5063998;28;20096;-64
2023/10/15 07:08:16;;;;;;;12.05;11.55;;;;;;;;;;5065461;28;20461;-65
2023/10/15 07:10:41;;;;;;;11.85;11.35;;;;;;;;;;5066842;28;20075;-66
2023/10/15 07:13:07;;;;;;;12.00;11.50;;;;;;;;;;5061966;28;20054;-64
2023/10/15 07:15:35;;;;;;;11.93;11.43;;;;;;;;;;5069969;28;20027;-64
2023/10/15 07:18:00;;;;;;;11.90;11.40;;;;;;;;;;5059944;28;20392;-65
2023/10/15 07:20:27;;;;;;;12.23;11.73;;;;;;;;;;5066670;28;20070;-63
2023/10/15 07:22:53;;;;;;;11.57;11.07;;;;;;;;;;5068103;28;20074;-64
2023/10/15 07:25:20;;;;;;;11.80;11.30;;;;;;;;;;5067622;28;20025;-65
2023/10/15 07:27:46;;;;;;;11.90;11.40;;;;;;;;;;5071260;28;20024;-66
2023/10/15 07:30:15;;;;;;;11.70;11.20;;;;;;;;;;5057856;28;20123;-65
2023/10/15 07:32:44;;;;;;;12.10;11.60;;;;;;;;;;5065988;28;20096;-66
2023/10/15 07:35:13;;;;;;;12.00;11.50;;;;;;;;;;5065176;28;20301;-65
2023/10/15 07:37:44;;;;;;;11.90;11.40;;;;;;;;;;5061545;28;20035;-65
2023/10/15 07:40:21;;;;;;;11.88;11.38;;;;;;;;;;5058823;28;20020;-65
2023/10/15 07:42:51;;;;;;;11.73;11.23;;;;;;;;;;5063123;28;20108;-64
2023/10/15 07:45:16;;;;;;;11.77;11.27;;;;;;;;;;5059169;28;20021;-64
2023/10/15 07:47:42;;;;;;;11.82;11.32;;;;;;;;;;5056319;28;20031;-65
2023/10/15 07:50:08;;;;;;;11.85;11.35;;;;;;;;;;5066625;28;20031;-65
2023/10/15 07:52:34;;;;;;;12.00;11.50;;;;;;;;;;5068939;28;20025;-65
2023/10/15 07:55:00;;;;;;;11.70;11.20;;;;;;;;;;5058036;28;20120;-65
2023/10/15 07:57:26;;;;;;;11.80;11.30;;;;;;;;;;5059036;28;20059;-65
2023/10/15 07:59:54;;;;;;;11.88;11.38;;;;;;;;;;5058272;28;20055;-65
2023/10/15 08:02:21;;;;;;;12.00;11.50;;;;;;;;;;5065982;28;20027;-65
2023/10/15 08:04:46;;;;;;;12.00;11.50;;;;;;;;;;5058870;28;20611;-65
2023/10/15 08:07:12;;;;;;;11.95;11.45;;;;;;;;;;5063094;28;20103;-62
2023/10/15 08:09:37;;;;;;;12.00;11.50;;;;;;;;;;5062527;28;20107;-67
2023/10/15 08:12:03;;;;;;;12.00;11.50;;;;;;;;;;5062640;28;20066;-63
2023/10/15 08:14:28;;;;;;;12.20;11.70;;;;;;;;;;5060658;28;20029;-63
2023/10/15 08:16:54;;;;;;;12.20;11.70;;;;;;;;;;5063218;28;20028;-63
2023/10/15 08:19:19;;;;;;;11.93;11.43;;;;;;;;;;5067867;28;20261;-64
2023/10/15 08:21:45;;;;;;;11.70;11.20;;;;;;;;;;5070251;28;20270;-63
2023/10/15 08:24:14;;;;;;;11.80;11.30;;;;;;;;;;5062243;28;20044;-63
2023/10/15 08:26:40;;;;;;;12.05;11.55;;;;;;;;;;5059943;28;20111;-63
2023/10/15 08:29:05;;;;;;;11.80;11.30;;;;;;;;;;5059303;28;20100;-64
2023/10/15 08:31:31;;;;;;;12.00;11.50;;;;;;;;;;5063781;28;20331;-63
2023/10/15 08:33:57;;;;;;;11.75;11.25;;;;;;;;;;5060023;28;20270;-63
2023/10/15 08:36:22;;;;;;;12.18;11.68;;;;;;;;;;5058202;28;20075;-64
2023/10/15 08:38:49;;;;;;;11.77;11.27;;;;;;;;;;5064806;28;20025;-62
2023/10/15 08:41:16;;;;;;;11.98;11.48;;;;;;;;;;5062169;28;22729;-63
2023/10/15 08:43:44;;;;;;;11.77;11.27;;;;;;;;;;5066175;28;20417;-63
2023/10/15 08:46:10;;;;;;;11.65;11.15;;;;;;;;;;5059664;28;20029;-62
2023/10/15 08:48:40;;;;;;;11.63;11.13;;;;;;;;;;5069042;28;20127;-63
2023/10/15 08:51:08;;;;;;;11.80;11.30;;;;;;;;;;5055666;28;20074;-62
2023/10/15 08:53:34;;;;;;;11.70;11.20;;;;;;;;;;5067467;28;20389;-62
2023/10/15 08:56:01;;;;;;;11.70;11.20;;;;;;;;;;5059588;28;20044;-63
2023/10/15 08:58:27;;;;;;;11.80;11.30;;;;;;;;;;5064826;28;20552;-62
2023/10/15 09:00:57;;;;;;;11.85;11.35;;;;;;;;;;5058676;28;20024;-63
2023/10/15 09:03:23;;;;;;;11.60;11.10;;;;;;;;;;5063797;28;20041;-62
2023/10/15 09:05:52;;;;;;;11.93;11.43;;;;;;;;;;5062801;28;20059;-63
2023/10/15 09:08:17;;;;;;;11.88;11.38;;;;;;;;;;5062186;28;20055;-64
2023/10/15 09:10:43;;;;;;;11.98;11.48;;;;;;;;;;5055098;28;20044;-63
2023/10/15 09:13:14;;;;;;;11.98;11.48;;;;;;;;;;5061504;28;21039;-63
2023/10/15 09:15:45;;;;;;;11.73;11.23;;;;;;;;;;5056768;28;20473;-63
2023/10/15 09:18:16;;;;;;;11.70;11.20;;;;;;;;;;5056676;28;20032;-64
2023/10/15 09:20:46;;;;;;;11.70;11.20;;;;;;;;;;5062496;28;20017;-63
2023/10/15 09:23:11;;;;;;;11.65;11.15;;;;;;;;;;5064382;28;20024;-63
2023/10/15 09:25:37;;;;;;;11.55;11.05;;;;;;;;;;5062264;28;20035;-63
2023/10/15 09:28:03;;;;;;;11.48;10.98;;;;;;;;;;5062064;28;20059;-62
2023/10/15 09:30:30;;;;;;;12.00;11.50;;;;;;;;;;5062627;28;20028;-62
2023/10/15 09:32:56;;;;;;;11.65;11.15;;;;;;;;;;5060710;28;20020;-64
2023/10/15 09:35:22;;;;;;;12.20;11.70;;;;;;;;;;5061658;28;20191;-62
2023/10/15 09:37:47;;;;;;;11.68;11.18;;;;;;;;;;5062246;28;20159;-65
2023/10/15 09:40:19;;;;;;;11.73;11.23;;;;;;;;;;5071276;28;20025;-63
2023/10/15 09:42:53;;;;;;;12.00;11.50;;;;;;;;;;5062663;28;20039;-63
2023/10/15 09:45:19;;;;;;;11.90;11.40;;;;;;;;;;5058380;28;20107;-63
2023/10/15 09:47:48;;;;;;;11.82;11.32;;;;;;;;;;5063157;28;20166;-63
2023/10/15 09:50:19;;;;;;;12.00;11.50;;;;;;;;;;5059140;28;20062;-63
2023/10/15 09:52:46;;;;;;;12.57;11.98;;;;;;;;;;5058143;28;20020;-63
2023/10/15 09:55:12;;;;;;;11.90;11.40;;;;;;;;;;5057817;28;20043;-63
2023/10/15 09:57:38;;;;;;;11.68;11.18;;;;;;;;;;5066684;28;20068;-64
2023/10/15 10:00:09;;;;;;;11.65;11.15;;;;;;;;;;5063545;28;20520;-62
2023/10/15 10:02:39;;;;;;;11.98;11.48;;;;;;;;;;5064348;28;20032;-61
2023/10/15 10:05:41;;;;;;;11.85;11.35;;;;;;;;;;5066665;28;20058;-63
2023/10/15 10:08:12;;;;;;;11.80;11.30;;;;;;;;;;5062277;28;20052;-62
2023/10/15 10:10:44;;;;;;;11.65;11.15;;;;;;;;;;5061138;28;20047;-62
2023/10/15 10:13:28;;;;;;;11.80;11.30;;;;;;;;;;5065692;28;20610;-63
2023/10/15 10:15:55;;;;;;;11.68;11.18;;;;;;;;;;5064996;28;20512;-63
2023/10/15 10:18:24;;;;;;;11.52;11.02;;;;;;;;;;5060759;28;20028;-63
2023/10/15 10:20:49;;;;;;;11.68;11.18;;;;;;;;;;5058636;28;20036;-62
2023/10/15 10:23:14;;;;;;;11.68;11.18;;;;;;;;;;5063197;28;20017;-62
2023/10/15 10:25:42;;;;;;;12.00;11.50;;;;;;;;;;5062085;28;20094;-62
2023/10/15 10:28:07;;;;;;;11.65;11.15;;;;;;;;;;5062658;28;20082;-62
2023/10/15 10:30:33;;;;;;;11.20;10.70;;;;;;;;;;5061274;28;20078;-64
2023/10/15 10:33:02;;;;;;;11.48;10.98;;;;;;;;;;5070222;28;20017;-62
2023/10/15 10:35:27;;;;;;;11.52;11.02;;;;;;;;;;5069434;28;20024;-62
2023/10/15 10:38:11;;;;;;;11.70;11.20;;;;;;;;;;5068838;28;20020;-62
2023/10/15 10:40:48;;;;;;;11.60;11.10;;;;;;;;;;5062675;28;20580;-62
2023/10/15 10:43:21;;;;;;;11.27;10.77;;;;;;;;;;5062002;28;20041;-62
2023/10/15 10:45:56;;;;;;;11.70;11.20;;;;;;;;;;5063599;28;20076;-62
2023/10/15 10:48:22;;;;;;;11.45;10.95;;;;;;;;;;5062729;28;20055;-62
2023/10/15 10:50:48;;;;;;;11.32;10.82;;;;;;;;;;5067795;28;20025;-63
2023/10/15 10:53:14;;;;;;;11.32;10.82;;;;;;;;;;5070822;28;20113;-63
2023/10/15 10:55:39;;;;;;;11.38;10.88;;;;;;;;;;5065219;28;20020;-63
2023/10/15 10:58:08;;;;;;;11.75;11.25;;;;;;;;;;5064231;28;20193;-63
2023/10/15 11:00:33;;;;;;;11.38;10.88;;;;;;;;;;5069636;28;20024;-63
2023/10/15 11:03:06;;;;;;;11.45;10.95;;;;;;;;;;5063351;28;20383;-63
2023/10/15 11:05:31;;;;;;;11.50;11.00;;;;;;;;;;5056780;28;20112;-64
2023/10/15 11:07:57;;;;;;;11.35;10.85;;;;;;;;;;5060305;28;20123;-63
2023/10/15 11:10:22;;;;;;;11.20;10.70;;;;;;;;;;5068796;28;20052;-63
2023/10/15 11:12:47;;;;;;;11.20;10.70;;;;;;;;;;5067512;28;20045;-64
2023/10/15 11:15:14;;;;;;;11.30;10.80;;;;;;;;;;5065250;28;20031;-62
2023/10/15 11:18:04;;;;;;;11.60;11.10;;;;;;;;;;5059630;28;20056;-63
2023/10/15 11:20:30;;;;;;;12.20;11.70;;;;;;;;;;5063528;28;20444;-63
2023/10/15 11:22:59;;;;;;;11.70;11.20;;;;;;;;;;5060086;28;20044;-63
2023/10/15 11:25:24;;;;;;;11.25;10.75;;;;;;;;;;5067323;28;20141;-62
2023/10/15 11:27:50;;;;;;;11.30;10.80;;;;;;;;;;5067767;28;20029;-64
2023/10/15 11:30:17;;;;;;;11.32;10.82;;;;;;;;;;5067931;28;20021;-62
2023/10/15 11:32:44;;;;;;;11.50;11.00;;;;;;;;;;5069046;28;20012;-63
2023/10/15 11:35:13;;;;;;;11.73;11.23;;;;;;;;;;5062736;28;20029;-63
2023/10/15 11:37:38;;;;;;;11.27;10.77;;;;;;;;;;5060481;28;20096;-63
2023/10/15 11:40:10;;;;;;;11.32;10.82;;;;;;;;;;5063694;28;20391;-62
2023/10/15 11:42:43;;;;;;;11.13;10.63;;;;;;;;;;5069927;28;20017;-63
2023/10/15 11:45:16;;;;;;;11.80;11.30;;;;;;;;;;5066633;28;20473;-62
2023/10/15 11:47:44;;;;;;;11.60;11.10;;;;;;;;;;5065306;28;20029;-62
2023/10/15 11:50:12;;;;;;;11.68;11.18;;;;;;;;;;5069732;28;20025;-64
2023/10/15 11:52:44;;;;;;;12.10;11.60;;;;;;;;;;5065153;28;20025;-62
2023/10/15 11:55:16;;;;;;;11.60;11.10;;;;;;;;;;5058601;28;20029;-64
2023/10/15 11:57:42;;;;;;;11.48;10.98;;;;;;;;;;5059602;28;20025;-62
2023/10/15 12:00:09;;;;;;;11.20;10.70;;;;;;;;;;5064079;28;22535;-62
2023/10/15 12:02:34;;;;;;;11.32;10.82;;;;;;;;;;5059809;28;20078;-63
2023/10/15 12:05:01;;;;;;;11.82;11.32;;;;;;;;;;5063059;28;20024;-62
2023/10/15 12:07:28;;;;;;;11.82;11.32;;;;;;;;;;5075892;28;20745;-63
2023/10/15 12:09:53;;;;;;;11.45;10.95;;;;;;;;;;5066719;28;20070;-63
2023/10/15 12:12:18;;;;;;;11.30;10.80;;;;;;;;;;5060381;28;20044;-63
2023/10/15 12:14:44;;;;;;;11.18;10.68;;;;;;;;;;5061070;28;20057;-63
2023/10/15 12:17:12;;;;;;;11.27;10.77;;;;;;;;;;5064392;28;20029;-62
2023/10/15 12:19:38;;;;;;;11.35;10.85;;;;;;;;;;5057589;28;20025;-63
2023/10/15 12:22:03;;;;;;;11.30;10.80;;;;;;;;;;5064741;28;20017;-63
2023/10/15 12:24:29;;;;;;;11.20;10.70;;;;;;;;;;5059850;28;20063;-62
2023/10/15 12:26:54;;;;;;;11.68;11.18;;;;;;;;;;5058038;28;20702;-63
2023/10/15 12:29:28;;;;;;;12.45;11.85;;;;;;;;;;5060943;28;20035;-64
2023/10/15 12:31:53;;;;;;;;;;;;;;;;;;5062930;28;20024;-63
2023/10/15 12:34:20;;;;;;;11.60;11.10;;;;;;;;;;5068671;28;19961;-62
2023/10/15 12:36:45;;;;;;;11.80;11.30;;;;;;;;;;5061410;28;20032;-63
2023/10/15 12:39:10;;;;;;;11.57;11.07;;;;;;;;;;5060616;28;20037;-64
2023/10/15 12:41:38;;;;;;;11.20;10.70;;;;;;;;;;5063967;28;20029;-63
2023/10/15 12:44:09;;;;;;;11.70;11.20;;;;;;;;;;5062927;28;20442;-63
2023/10/15 12:46:35;;;;;;;12.18;11.60;;;;;;;;;;5060453;28;20035;-62
2023/10/15 12:49:03;;;;;;;11.55;11.05;;;;;;;;;;5057055;28;20033;-63
2023/10/15 12:51:28;;;;;;;10.98;10.48;;;;;;;;;;5062550;28;20048;-64
2023/10/15 12:53:53;;;;;;;11.23;10.73;;;;;;;;;;5069025;28;20052;-62
2023/10/15 12:56:19;;;;;;;11.30;10.80;;;;;;;;;;5052970;28;20017;-62
2023/10/15 12:58:45;;;;;;;11.25;10.75;;;;;;;;;;5062435;28;20070;-63
2023/10/15 13:01:11;;;;;;;11.10;10.60;;;;;;;;;;5057893;28;20382;-63
2023/10/15 13:03:36;;;;;;;11.00;10.50;;;;;;;;;;5065343;28;20102;-64
2023/10/15 13:06:02;;;;;;;11.40;10.90;;;;;;;;;;5058332;28;20029;-64
2023/10/15 13:08:28;;;;;;;11.20;10.70;;;;;;;;;;5061039;28;20056;-63
2023/10/15 13:10:54;;;;;;;10.88;10.38;;;;;;;;;;5061265;28;20033;-63
2023/10/15 13:13:19;;;;;;;11.30;10.80;;;;;;;;;;5063210;28;20043;-63
2023/10/15 13:15:45;;;;;;;11.50;11.00;;;;;;;;;;5063439;28;20031;-64
2023/10/15 13:18:11;;;;;;;11.13;10.63;;;;;;;;;;5061707;28;20443;-65
2023/10/15 13:20:37;;;;;;;11.35;10.85;;;;;;;;;;5058310;28;20032;-63
2023/10/15 13:23:02;;;;;;;11.10;10.60;;;;;;;;;;5055463;28;20032;-65
2023/10/15 13:25:28;;;;;;;10.75;10.25;;;;;;;;;;5059877;28;20112;-63
2023/10/15 13:27:53;;;;;;;10.85;10.35;;;;;;;;;;5056028;28;20040;-63
2023/10/15 13:30:22;;;;;;;11.35;10.85;;;;;;;;;;5057297;28;20074;-64
2023/10/15 13:32:47;;;;;;;10.90;10.40;;;;;;;;;;5061755;28;20371;-64
2023/10/15 13:35:13;;;;;;;11.35;10.85;;;;;;;;;;5064760;28;20029;-63
2023/10/15 13:37:39;;;;;;;11.50;11.00;;;;;;;;;;5067494;28;20027;-63
2023/10/15 13:40:09;;;;;;;11.05;10.55;;;;;;;;;;5067332;28;20100;-63
2023/10/15 13:42:38;;;;;;;11.02;10.52;;;;;;;;;;5071057;28;20493;-62
2023/10/15 13:45:04;;;;;;;11.48;10.98;;;;;;;;;;5065712;28;20017;-62
2023/10/15 13:47:31;;;;;;;12.00;11.50;;;;;;;;;;5069584;28;20593;-63
2023/10/15 13:49:56;;;;;;;11.07;10.57;;;;;;;;;;5059447;28;20033;-63
2023/10/15 13:52:22;;;;;;;11.63;11.13;;;;;;;;;;5065018;28;20035;-62
2023/10/15 13:54:47;;;;;;;11.20;10.70;;;;;;;;;;5060453;28;20017;-62
2023/10/15 13:57:12;;;;;;;11.82;11.32;;;;;;;;;;5061669;28;20105;-63
2023/10/15 13:59:38;;;;;;;11.90;11.40;;;;;;;;;;5064795;28;20109;-63
2023/10/15 14:02:06;;;;;;;11.10;10.60;;;;;;;;;;5065828;28;20029;-65
2023/10/15 14:04:32;;;;;;;11.05;10.55;;;;;;;;;;5070243;28;20081;-63
2023/10/15 14:06:57;;;;;;;11.75;11.25;;;;;;;;;;5069322;28;20103;-63
2023/10/15 14:09:25;;;;;;;11.80;11.30;;;;;;;;;;5059008;28;20021;-69
2023/10/15 14:11:50;;;;;;;11.23;10.73;;;;;;;;;;5071236;28;20043;-62
2023/10/15 14:14:16;;;;;;;11.38;10.88;;;;;;;;;;5068148;28;20409;-62
2023/10/15 14:16:41;;;;;;;11.18;10.68;;;;;;;;;;5070092;28;20035;-62
2023/10/15 14:19:06;;;;;;;11.23;10.73;;;;;;;;;;5072277;28;20395;-61
2023/10/15 14:21:34;;;;;;;11.52;11.02;;;;;;;;;;5071437;28;20047;-63
2023/10/15 14:24:00;;;;;;;11.88;11.38;;;;;;;;;;5066186;28;20082;-62
2023/10/15 14:26:26;;;;;;;11.38;10.88;;;;;;;;;;5062814;28;20103;-63
2023/10/15 14:28:51;;;;;;;11.00;10.50;;;;;;;;;;5069026;28;20869;-63
2023/10/15 14:31:17;;;;;;;11.18;10.68;;;;;;;;;;5074370;28;20479;-62